world map with WJR marked

WJR - Airport

This information may not be accurate or current and is not valid for navigation or flight planning. No warranty of fitness for any purpose is made or implied.

flag of Kenya

Donate via PayPal

Additional information is available on the NEW Great Circle Mapper

Location
City:  Wajir, Kenya
Near (Alt.):Waghala
ICAO / IATA:HKWJ / WJR

Details
Type:Airport (Aerodrome, Airfield)
Latitude:1°44'00"N (1.733239)
Longitude:40°05'30"E (40.091606)
Datum:WGS 1984
Elevation:770 ft (235 m)
Runways:1
Longest:9193 × 104 ft (2802 × 31.5 m)

Time
Timezone:UTC+3 (DST+5)
Local Time:

Weather
METAR:HKWJ  041300Z 11009KT CAVOK 37/14 Q1006

Related Locations
Nearby:
Farthest:NHV: 11944 mi / 19222 km
Nuku Hiva, Marquesas Islands, PF

Find:

   beyond  
but within

Other Information
Maps:
Sources:

  


 


Great Circle Mapper   Great Circle Mapper
Great Circle Mapper FAQ   Great Circle Mapper FAQ
  Karl's Home Page
KLSē   KLSē Home
   GC on Facebook
Airlines of the World   Airlines of the World
Donate via PayPal


Copyright © 2004-2019, Karl L. Swartz. All rights reserved.
All trademarks mentioned herein belong to their respective owners.

Please see credits for attribution and copyright information.

Karl Swartz <karl@kls2.com>
  Powered by FreeBSD
Valid HTML 4.01!
Labeled with ICRA
hCard Microformat
Geo Microformat